Dina Helena — PB4048 — position and weather

sailwx.info

Track history (hours):
 
Tides and Currents Weather Stations Pressure Air Temp Water Temp Dewpoint Dewpoint Depression Visibility Wind Speed Wind Dir Waves Ship Positions

Dina Helena

Last reported at 2017-Sep-29 14:56 UTC. Time now 2017-Nov-20 12:17 UTC.
Position N 37°01' W 008°05'.
Warning: this ship's position is 51 days out of date.

Length 14 m.

MMSI: 244650669.

Date/timePositionNaut miles runAvg speedWind from/ knotsBaromVisibWave heightAir tempDewpointWater temp
2017-Sep-29 14:56N 37°01' W 008°05'2 3.4
2017-Sep-29 14:28N 37°02' W 008°06'2 3.0
2017-Sep-29 13:44N 37°04' W 008°09'6 0.3
2017-Sep-28 12:32N 37°04' W 008°16'0 5.2
2017-Sep-28 12:30N 37°04' W 008°17'2 4.8
2017-Sep-28 12:00N 37°04' W 008°20'2 4.0
2017-Sep-28 11:29N 37°04' W 008°22'2 4.6
2017-Sep-28 11:00N 37°04' W 008°25'3 5.1
2017-Sep-28 10:30N 37°05' W 008°28'2 3.8
2017-Sep-28 10:00N 37°05' W 008°31'2 3.6
2017-Sep-28 09:30N 37°06' W 008°33'3 0.1
2017-Sep-26 07:06N 37°08' W 008°36'0 0.0
2017-Sep-26 05:45N 37°08' W 008°36'0 0.0
2017-Sep-26 05:21N 37°08' W 008°36'0 0.0
2017-Sep-26 04:36N 37°08' W 008°36'0 0.0
2017-Sep-26 04:06N 37°08' W 008°36'0 0.0
2017-Sep-24 11:20N 37°08' W 008°36'0 0.0
2017-Sep-24 10:56N 37°08' W 008°36'0 0.0
2017-Sep-24 10:26N 37°08' W 008°36'0 0.0
2017-Sep-24 09:20N 37°08' W 008°36'0 0.0
2017-Sep-24 08:44N 37°08' W 008°36'0 0.0
2017-Sep-24 08:26N 37°08' W 008°36'0 0.0
2017-Sep-24 07:50N 37°08' W 008°36'0 0.0
2017-Sep-24 06:50N 37°08' W 008°36'0 0.0
2017-Sep-24 02:26N 37°08' W 008°36'  
2017-Sep-20 10:51N 37°33' W 008°56'11 5.0
2017-Sep-20 08:39N 37°44' W 008°54'1 5.3
2017-Sep-20 08:29N 37°44' W 008°54'3 5.4
2017-Sep-20 08:01N 37°47' W 008°53'3 5.3
2017-Sep-20 07:30N 37°50' W 008°53'3 5.4
2017-Sep-20 07:01N 37°52' W 008°53'3 5.4
2017-Sep-20 06:30N 37°55' W 008°53'2 3.9
2017-Sep-20 06:01N 37°57' W 008°52'0 0.4
2017-Sep-20 05:29N 37°57' W 008°52'0 0.0
2017-Sep-20 04:59N 37°57' W 008°52'0 0.0
2017-Sep-20 04:29N 37°57' W 008°52'0 0.0
2017-Sep-20 03:59N 37°57' W 008°52'0 0.0
2017-Sep-20 03:29N 37°57' W 008°52'0 0.0
2017-Sep-20 02:59N 37°57' W 008°52'0 0.0
2017-Sep-20 02:29N 37°57' W 008°52'0 0.0
2017-Sep-20 01:59N 37°57' W 008°52'0 0.0
2017-Sep-20 01:29N 37°57' W 008°52'0 0.0
2017-Sep-20 00:59N 37°57' W 008°52'0 0.0
2017-Sep-20 00:29N 37°57' W 008°52'0 0.0
2017-Sep-19 23:59N 37°57' W 008°52'0 0.0
2017-Sep-19 23:29N 37°57' W 008°52'0 0.0
2017-Sep-19 22:59N 37°57' W 008°52'0 0.0
2017-Sep-19 22:29N 37°57' W 008°52'0 0.0
2017-Sep-19 21:59N 37°57' W 008°52'0 0.0
2017-Sep-19 21:29N 37°57' W 008°52'0 0.0
2017-Sep-19 20:59N 37°57' W 008°52'0 0.0
2017-Sep-19 20:29N 37°57' W 008°52'0 0.0
2017-Sep-19 19:59N 37°57' W 008°52'0 0.0
2017-Sep-19 19:29N 37°57' W 008°52'0 0.0
2017-Sep-19 18:59N 37°57' W 008°52'0 0.0
2017-Sep-19 18:29N 37°57' W 008°52'0 0.0
2017-Sep-19 17:59N 37°57' W 008°52'0 0.0
2017-Sep-19 17:29N 37°57' W 008°52'0 0.0
2017-Sep-19 16:59N 37°57' W 008°52'0 0.0
2017-Sep-19 16:29N 37°57' W 008°52'0 0.0
2017-Sep-19 15:59N 37°57' W 008°52'0 0.0
2017-Sep-19 15:29N 37°57' W 008°52'0 0.0
2017-Sep-19 14:59N 37°57' W 008°52'  
Track history (hours):
 
Tides and Currents Weather Stations Pressure Air Temp Water Temp Dewpoint Dewpoint Depression Visibility Wind Speed Wind Dir Waves Ship Positions

Dina Helena

Last reported at 2017-Sep-29 14:56 UTC. Time now 2017-Nov-20 12:17 UTC.
Position N 37°01' W 008°05'.
Warning: this ship's position is 51 days out of date.

Length 14 m.

MMSI: 244650669.

Date/timePositionNaut miles runAvg speedWind from/ knotsBaromVisibWave heightAir tempDewpointWater temp
2017-Sep-29 14:56N 37°01' W 008°05'2 3.4
2017-Sep-29 14:28N 37°02' W 008°06'2 3.0
2017-Sep-29 13:44N 37°04' W 008°09'6 0.3
2017-Sep-28 12:32N 37°04' W 008°16'0 5.2
2017-Sep-28 12:30N 37°04' W 008°17'2 4.8
2017-Sep-28 12:00N 37°04' W 008°20'2 4.0
2017-Sep-28 11:29N 37°04' W 008°22'2 4.6
2017-Sep-28 11:00N 37°04' W 008°25'3 5.1
2017-Sep-28 10:30N 37°05' W 008°28'2 3.8
2017-Sep-28 10:00N 37°05' W 008°31'2 3.6
2017-Sep-28 09:30N 37°06' W 008°33'3 0.1
2017-Sep-26 07:06N 37°08' W 008°36'0 0.0
2017-Sep-26 05:45N 37°08' W 008°36'0 0.0
2017-Sep-26 05:21N 37°08' W 008°36'0 0.0
2017-Sep-26 04:36N 37°08' W 008°36'0 0.0
2017-Sep-26 04:06N 37°08' W 008°36'0 0.0
2017-Sep-24 11:20N 37°08' W 008°36'0 0.0
2017-Sep-24 10:56N 37°08' W 008°36'0 0.0
2017-Sep-24 10:26N 37°08' W 008°36'0 0.0
2017-Sep-24 09:20N 37°08' W 008°36'0 0.0
2017-Sep-24 08:44N 37°08' W 008°36'0 0.0
2017-Sep-24 08:26N 37°08' W 008°36'0 0.0
2017-Sep-24 07:50N 37°08' W 008°36'0 0.0
2017-Sep-24 06:50N 37°08' W 008°36'0 0.0
2017-Sep-24 02:26N 37°08' W 008°36'  
2017-Sep-20 10:51N 37°33' W 008°56'11 5.0
2017-Sep-20 08:39N 37°44' W 008°54'1 5.3
2017-Sep-20 08:29N 37°44' W 008°54'3 5.4
2017-Sep-20 08:01N 37°47' W 008°53'3 5.3
2017-Sep-20 07:30N 37°50' W 008°53'3 5.4
2017-Sep-20 07:01N 37°52' W 008°53'3 5.4
2017-Sep-20 06:30N 37°55' W 008°53'2 3.9
2017-Sep-20 06:01N 37°57' W 008°52'0 0.4
2017-Sep-20 05:29N 37°57' W 008°52'0 0.0
2017-Sep-20 04:59N 37°57' W 008°52'0 0.0
2017-Sep-20 04:29N 37°57' W 008°52'0 0.0
2017-Sep-20 03:59N 37°57' W 008°52'0 0.0
2017-Sep-20 03:29N 37°57' W 008°52'0 0.0
2017-Sep-20 02:59N 37°57' W 008°52'0 0.0
2017-Sep-20 02:29N 37°57' W 008°52'0 0.0
2017-Sep-20 01:59N 37°57' W 008°52'0 0.0
2017-Sep-20 01:29N 37°57' W 008°52'0 0.0
2017-Sep-20 00:59N 37°57' W 008°52'0 0.0
2017-Sep-20 00:29N 37°57' W 008°52'0 0.0
2017-Sep-19 23:59N 37°57' W 008°52'0 0.0
2017-Sep-19 23:29N 37°57' W 008°52'0 0.0
2017-Sep-19 22:59N 37°57' W 008°52'0 0.0
2017-Sep-19 22:29N 37°57' W 008°52'0 0.0
2017-Sep-19 21:59N 37°57' W 008°52'0 0.0
2017-Sep-19 21:29N 37°57' W 008°52'0 0.0
2017-Sep-19 20:59N 37°57' W 008°52'0 0.0
2017-Sep-19 20:29N 37°57' W 008°52'0 0.0
2017-Sep-19 19:59N 37°57' W 008°52'0 0.0
2017-Sep-19 19:29N 37°57' W 008°52'0 0.0
2017-Sep-19 18:59N 37°57' W 008°52'0 0.0
2017-Sep-19 18:29N 37°57' W 008°52'0 0.0
2017-Sep-19 17:59N 37°57' W 008°52'0 0.0
2017-Sep-19 17:29N 37°57' W 008°52'0 0.0
2017-Sep-19 16:59N 37°57' W 008°52'0 0.0
2017-Sep-19 16:29N 37°57' W 008°52'0 0.0
2017-Sep-19 15:59N 37°57' W 008°52'0 0.0
2017-Sep-19 15:29N 37°57' W 008°52'0 0.0
2017-Sep-19 14:59N 37°57' W 008°52'  

Dump ship's entire track history